This is the latest recevied weather packets stored in our database for station/object SR2CPA-13. If no packets are shown the sender has not sent any weather packets the latest 10 day(s).
| Time | Temp. | Humidity | Pressure | Rain* | Wind** | Luminosity | Snow |
|---|---|---|---|---|---|---|---|
| 1777762312 | 13.89° C | 60% | 0 hPa | 0 mm | - | - | - |
| 1777761692 | 13.89° C | 60% | 0 hPa | 0 mm | - | - | - |
| 1777761092 | 13.89° C | 60% | 0 hPa | 0 mm | - | - | - |
| 1777760472 | 13.89° C | 61% | 0 hPa | 0 mm | - | - | - |
| 1777759872 | 13.33° C | 61% | 0 hPa | 0 mm | - | - | - |
| 1777759252 | 13.89° C | 60% | 0 hPa | 0 mm | - | - | - |
| 1777758652 | 14.44° C | 59% | 0 hPa | 0 mm | - | - | - |
| 1777758032 | 14.44° C | 58% | 0 hPa | 0 mm | - | - | - |
| 1777757432 | 15° C | 57% | 0 hPa | 0 mm | - | - | - |
| 1777756812 | 15° C | 57% | 0 hPa | 0 mm | - | - | - |
| 1777756212 | 15° C | 56% | 0 hPa | 0 mm | - | - | - |
| 1777755592 | 15.56° C | 55% | 0 hPa | 0 mm | - | - | - |
| 1777754992 | 15.56° C | 54% | 0 hPa | 0 mm | - | - | - |
| 1777754392 | 15.56° C | 54% | 0 hPa | 0 mm | - | - | - |
| 1777753772 | 15.56° C | 54% | 0 hPa | 0 mm | - | - | - |
| 1777753172 | 15.56° C | 54% | 0 hPa | 0 mm | - | - | - |
| 1777752572 | 15.56° C | 52% | 0 hPa | 0 mm | - | - | - |
| 1777751972 | 15.56° C | 52% | 0 hPa | 0 mm | - | - | - |
| 1777751372 | 15° C | 54% | 0 hPa | 0 mm | - | - | - |
| 1777750752 | 15° C | 55% | 0 hPa | 0 mm | - | - | - |
| 1777750152 | 15.56° C | 52% | 0 hPa | 0 mm | - | - | - |
| 1777749552 | 16.67° C | 47% | 0 hPa | 0 mm | - | - | - |
| 1777748952 | 17.78° C | 45% | 0 hPa | 0 mm | - | - | - |
| 1777748332 | 17.78° C | 45% | 0 hPa | 0 mm | - | - | - |
| 1777747712 | 17.78° C | 45% | 0 hPa | 0 mm | - | - | - |
* Rain latest hour (hover to see other rain measurements)
** Current wind speed in m/s (hover to see current wind gust speed)